createdAt,value
2023-04-03T00:00:37.266Z,46.61
2023-04-03T00:03:03.837Z,46.56
2023-04-03T00:05:30.300Z,46.50
2023-04-03T00:07:56.612Z,46.50
2023-04-03T00:10:22.973Z,46.22
2023-04-03T00:12:49.275Z,46.26
2023-04-03T00:15:15.623Z,46.57
2023-04-03T00:17:42.004Z,46.39
2023-04-03T00:20:08.413Z,46.36
2023-04-03T00:22:34.734Z,46.25
2023-04-03T00:25:01.116Z,46.29
2023-04-03T00:27:27.431Z,46.33
2023-04-03T00:29:53.746Z,46.14
2023-04-03T00:32:20.105Z,46.12
2023-04-03T00:34:46.630Z,46.32
2023-04-03T00:37:13.004Z,46.24
2023-04-03T00:39:39.371Z,46.22
2023-04-03T00:42:05.687Z,46.09
2023-04-03T00:44:31.990Z,46.41
2023-04-03T00:46:58.351Z,46.17
2023-04-03T00:49:24.650Z,46.27
2023-04-03T00:51:50.964Z,46.80
2023-04-03T00:54:17.954Z,46.23
2023-04-03T00:56:44.300Z,46.54
2023-04-03T00:59:10.628Z,46.47
2023-04-03T01:01:37.022Z,46.68
2023-04-03T01:04:03.542Z,46.48
2023-04-03T01:06:30.041Z,46.48
2023-04-03T01:09:01.737Z,46.71
2023-04-03T01:11:28.335Z,46.25
2023-04-03T01:13:54.704Z,46.59
2023-04-03T01:16:21.236Z,46.41
2023-04-03T01:18:47.639Z,46.28
2023-04-03T01:21:14.013Z,46.42
2023-04-03T01:23:40.421Z,46.77
2023-04-03T01:26:06.731Z,46.64
2023-04-03T01:28:33.096Z,46.70
2023-04-03T01:30:59.803Z,47.39
2023-04-03T01:33:26.558Z,46.90
2023-04-03T01:35:53.028Z,46.81
2023-04-03T01:38:19.612Z,46.77
2023-04-03T01:40:45.932Z,46.57
2023-04-03T01:43:12.451Z,46.68
2023-04-03T01:45:38.869Z,46.85
2023-04-03T01:48:05.186Z,46.63
2023-04-03T01:50:31.709Z,46.93
2023-04-03T01:52:58.143Z,46.97
2023-04-03T01:55:24.472Z,46.94
2023-04-03T01:57:50.953Z,46.94
2023-04-03T02:00:17.700Z,46.59
2023-04-03T02:02:44.511Z,47.13
2023-04-03T02:05:10.856Z,46.90
2023-04-03T02:07:37.244Z,46.85
2023-04-03T02:10:03.660Z,46.38
2023-04-03T02:12:30.039Z,45.74
2023-04-03T02:14:56.417Z,45.39
2023-04-03T02:17:22.804Z,44.89
2023-04-03T02:19:49.165Z,43.86
2023-04-03T02:22:15.527Z,43.41
2023-04-03T02:24:41.845Z,42.77
2023-04-03T02:27:08.167Z,42.32
2023-04-03T02:29:34.574Z,41.84
2023-04-03T02:32:00.933Z,41.26
2023-04-03T02:34:27.745Z,40.83
2023-04-03T02:36:54.867Z,40.47
2023-04-03T02:39:21.244Z,39.84
2023-04-03T02:41:48.056Z,39.30
2023-04-03T02:44:19.647Z,39.41
2023-04-03T02:46:46.125Z,38.64
2023-04-03T02:49:12.471Z,38.47
2023-04-03T02:51:38.918Z,37.94
2023-04-03T02:54:05.512Z,37.58
2023-04-03T02:56:34.270Z,37.16
2023-04-03T02:59:00.729Z,37.09
2023-04-03T03:01:27.289Z,36.76
2023-04-03T03:03:53.615Z,36.64
2023-04-03T03:06:20.030Z,36.18
2023-04-03T03:08:46.371Z,35.43
2023-04-03T03:11:12.680Z,35.57
2023-04-03T03:13:39.121Z,35.07
2023-04-03T03:16:05.436Z,34.69
2023-04-03T03:18:31.823Z,34.65
2023-04-03T03:20:58.217Z,34.27
2023-04-03T03:23:24.920Z,33.91
2023-04-03T03:25:51.315Z,33.90
2023-04-03T03:28:17.862Z,33.86
2023-04-03T03:30:44.331Z,33.71
2023-04-03T03:33:10.790Z,33.47
2023-04-03T03:35:37.532Z,33.35
2023-04-03T03:38:04.288Z,33.21
2023-04-03T03:40:32.293Z,33.14
2023-04-03T03:42:58.918Z,32.65
2023-04-03T03:45:25.427Z,32.41
2023-04-03T03:47:51.857Z,32.54
2023-04-03T03:50:18.588Z,32.52
2023-04-03T03:52:45.169Z,32.32
2023-04-03T03:55:11.925Z,32.61
2023-04-03T03:57:38.612Z,32.40
2023-04-03T04:00:05.692Z,32.23
2023-04-03T04:02:41.982Z,31.72
2023-04-03T04:05:12.189Z,31.82
2023-04-03T04:07:38.654Z,31.64
2023-04-03T04:10:06.020Z,31.35
2023-04-03T04:12:32.690Z,30.82
2023-04-03T04:14:59.367Z,30.78
2023-04-03T04:17:28.290Z,30.40
2023-04-03T04:19:55.507Z,30.18
2023-04-03T04:22:21.953Z,30.06
2023-04-03T04:24:48.407Z,29.82
2023-04-03T04:27:14.838Z,29.51
2023-04-03T04:29:41.320Z,29.62
2023-04-03T04:32:08.372Z,29.60
2023-04-03T04:34:34.865Z,28.99
2023-04-03T04:37:02.163Z,29.11
2023-04-03T04:39:29.159Z,29.20
2023-04-03T04:41:57.780Z,28.92
2023-04-03T04:44:26.774Z,28.71
2023-04-03T04:46:53.311Z,28.62
2023-04-03T04:49:20.890Z,28.33
2023-04-03T04:51:51.981Z,28.36
2023-04-03T04:54:22.541Z,28.33
2023-04-03T04:56:49.717Z,28.13
2023-04-03T04:59:16.406Z,27.89
2023-04-03T05:01:42.978Z,28.00
2023-04-03T05:04:15.012Z,28.04
2023-04-03T05:06:42.924Z,28.10
2023-04-03T05:09:14.705Z,27.62
2023-04-03T05:11:43.587Z,27.83
2023-04-03T05:14:10.762Z,27.12
2023-04-03T05:16:37.249Z,27.32
2023-04-03T05:19:03.839Z,27.18
2023-04-03T05:21:31.065Z,26.99
2023-04-03T05:23:57.614Z,27.27
2023-04-03T05:26:24.719Z,26.58
2023-04-03T05:28:51.361Z,26.47
2023-04-03T05:31:19.127Z,26.31
2023-04-03T05:33:45.609Z,26.24
2023-04-03T05:36:16.388Z,26.30
2023-04-03T05:38:45.976Z,26.07
2023-04-03T05:41:12.920Z,25.98
2023-04-03T05:43:39.675Z,25.76
2023-04-03T05:46:08.118Z,25.46
2023-04-03T05:48:34.783Z,25.43
2023-04-03T05:51:01.536Z,25.23
2023-04-03T05:53:28.143Z,25.32
2023-04-03T05:55:56.532Z,25.12
2023-04-03T05:58:23.960Z,23.09
2023-04-03T06:00:52.341Z,24.83
2023-04-03T06:03:18.800Z,25.27
2023-04-03T06:05:45.343Z,25.29
2023-04-03T06:08:11.769Z,25.28
2023-04-03T06:10:38.464Z,25.56
2023-04-03T06:13:06.135Z,25.34
2023-04-03T06:15:32.608Z,25.03
2023-04-03T06:17:59.029Z,25.00
2023-04-03T06:20:25.606Z,25.12
2023-04-03T06:22:53.443Z,25.08
2023-04-03T06:25:19.823Z,25.05
2023-04-03T06:27:46.219Z,24.90
2023-04-03T06:30:12.595Z,25.15
2023-04-03T06:32:38.963Z,25.31
2023-04-03T06:35:05.384Z,25.18
2023-04-03T06:37:31.839Z,25.18
2023-04-03T06:39:58.617Z,25.27
2023-04-03T06:42:24.971Z,25.18
2023-04-03T06:45:00.380Z,25.25
2023-04-03T06:47:27.011Z,24.87
2023-04-03T06:49:53.454Z,24.87
2023-04-03T06:52:19.869Z,24.84
2023-04-03T06:54:46.265Z,24.85
2023-04-03T06:57:12.622Z,24.90
2023-04-03T06:59:39.056Z,24.99
2023-04-03T07:02:05.590Z,24.83
2023-04-03T07:04:32.097Z,24.61
2023-04-03T07:06:58.510Z,23.61
2023-04-03T07:09:24.899Z,25.09
2023-04-03T07:11:51.249Z,25.60
2023-04-03T07:14:17.670Z,25.60
2023-04-03T07:16:44.068Z,25.23
2023-04-03T07:19:10.451Z,25.25
2023-04-03T07:21:36.865Z,24.76
2023-04-03T07:24:03.408Z,24.76
2023-04-03T07:26:29.842Z,24.83
2023-04-03T07:28:56.261Z,24.43
2023-04-03T07:31:22.652Z,24.40
2023-04-03T07:33:49.047Z,24.34
2023-04-03T07:36:15.467Z,24.76
2023-04-03T07:41:52.215Z,24.47
2023-04-03T07:44:18.640Z,24.25
2023-04-03T07:46:44.983Z,23.22
2023-04-03T07:49:11.404Z,24.50
2023-04-03T07:51:37.756Z,24.86
2023-04-03T07:54:04.088Z,24.92
2023-04-03T07:56:30.491Z,24.78
2023-04-03T07:58:56.847Z,24.57
2023-04-03T08:01:23.279Z,24.38
2023-04-03T08:03:49.877Z,24.28
2023-04-03T08:06:17.678Z,24.21
2023-04-03T08:11:38.521Z,24.14
2023-04-03T08:14:04.944Z,23.77
2023-04-03T08:16:31.319Z,23.80
2023-04-03T08:18:57.728Z,23.55
2023-04-03T08:21:24.085Z,23.53
2023-04-03T08:23:50.453Z,23.72
2023-04-03T08:26:16.886Z,23.49
2023-04-03T08:28:43.254Z,23.33
2023-04-03T08:31:09.726Z,23.24
2023-04-03T08:33:36.160Z,23.33
2023-04-03T08:36:02.565Z,23.12
2023-04-03T08:38:29.018Z,21.86
2023-04-03T08:40:55.427Z,23.12
2023-04-03T08:43:21.785Z,23.07
2023-04-03T08:45:48.203Z,23.24
2023-04-03T08:48:14.655Z,23.33
2023-04-03T08:50:41.020Z,22.93
2023-04-03T08:53:07.401Z,23.01
2023-04-03T08:55:33.818Z,22.82
2023-04-03T08:58:00.174Z,22.96
2023-04-03T09:00:26.530Z,22.46
2023-04-03T09:02:52.988Z,23.03
2023-04-03T09:05:19.392Z,23.10
2023-04-03T09:07:47.385Z,23.32
2023-04-03T09:10:15.092Z,23.13
2023-04-03T09:12:41.435Z,23.05
2023-04-03T09:15:07.818Z,22.74
2023-04-03T09:17:34.288Z,22.96
2023-04-03T09:20:00.678Z,22.89
2023-04-03T09:22:27.072Z,22.84
2023-04-03T09:24:53.495Z,22.45
2023-04-03T09:27:19.941Z,22.43
2023-04-03T09:29:46.386Z,22.54
2023-04-03T09:32:12.788Z,22.47
2023-04-03T09:34:39.135Z,22.04
2023-04-03T09:37:05.504Z,22.05
2023-04-03T09:39:31.905Z,21.93
2023-04-03T09:41:58.284Z,22.17
2023-04-03T09:44:24.646Z,22.32
2023-04-03T09:46:51.131Z,22.15
2023-04-03T09:49:17.490Z,22.18
2023-04-03T09:51:43.847Z,21.95
2023-04-03T09:54:10.268Z,21.90
2023-04-03T09:56:36.754Z,21.86
2023-04-03T09:59:03.129Z,21.88
2023-04-03T10:01:29.675Z,21.57
2023-04-03T10:03:56.114Z,21.38
2023-04-03T10:06:22.473Z,21.16
2023-04-03T10:08:49.017Z,20.94
2023-04-03T10:11:15.399Z,20.93
2023-04-03T10:13:50.790Z,21.01
2023-04-03T10:16:17.732Z,20.84
2023-04-03T10:18:44.131Z,20.67
2023-04-03T10:21:17.520Z,20.77
2023-04-03T10:23:47.700Z,20.53
2023-04-03T10:26:14.740Z,20.41
2023-04-03T10:28:41.236Z,20.27
2023-04-03T10:31:07.799Z,20.26
2023-04-03T10:33:34.388Z,20.17
2023-04-03T10:36:00.754Z,20.28
2023-04-03T10:38:27.199Z,20.22
2023-04-03T10:40:53.559Z,19.01
2023-04-03T10:43:19.957Z,19.97
2023-04-03T10:45:46.407Z,20.27
2023-04-03T10:48:12.910Z,20.45
2023-04-03T10:50:40.883Z,20.13
2023-04-03T10:53:07.425Z,20.01
2023-04-03T10:55:33.775Z,20.08
2023-04-03T10:58:00.216Z,19.91
2023-04-03T11:00:26.731Z,19.62
2023-04-03T11:02:53.145Z,19.47
2023-04-03T11:05:19.537Z,18.03
2023-04-03T11:07:45.981Z,17.32
2023-04-03T11:10:13.597Z,18.42
2023-04-03T11:12:41.032Z,19.59
2023-04-03T11:15:07.465Z,19.38
2023-04-03T11:17:33.844Z,19.17
2023-04-03T11:20:00.225Z,19.10
2023-04-03T11:22:26.660Z,19.12
2023-04-03T11:24:53.003Z,18.73
2023-04-03T11:27:19.345Z,18.62
2023-04-03T11:29:45.786Z,18.28
2023-04-03T11:32:12.147Z,18.07
2023-04-03T11:34:38.507Z,18.36
2023-04-03T11:37:04.912Z,17.92
2023-04-03T11:39:31.252Z,18.09
2023-04-03T11:42:06.655Z,17.77
2023-04-03T11:44:37.288Z,17.89
2023-04-03T11:47:03.634Z,17.69
2023-04-03T11:49:30.038Z,17.66
2023-04-03T11:51:56.466Z,17.69
2023-04-03T11:54:25.013Z,17.67
2023-04-03T11:56:52.829Z,17.47
2023-04-03T11:59:19.445Z,17.20
2023-04-03T12:01:45.841Z,17.28
2023-04-03T12:04:12.269Z,17.22
2023-04-03T12:06:38.726Z,17.17
2023-04-03T12:09:05.070Z,17.16
2023-04-03T12:11:31.428Z,16.97
2023-04-03T12:13:57.850Z,16.96
2023-04-03T12:16:24.263Z,16.85
2023-04-03T12:18:50.691Z,16.82
2023-04-03T12:21:17.112Z,16.96
2023-04-03T12:23:43.457Z,16.95
2023-04-03T12:26:09.820Z,16.89
2023-04-03T12:28:36.261Z,16.77
2023-04-03T12:31:02.771Z,17.09
2023-04-03T12:33:29.213Z,16.61
2023-04-03T12:35:55.703Z,16.29
2023-04-03T12:38:22.105Z,17.18
2023-04-03T12:40:48.464Z,17.54
2023-04-03T12:43:14.857Z,17.45
2023-04-03T12:45:41.386Z,16.45
2023-04-03T12:48:07.834Z,17.41
2023-04-03T12:50:34.216Z,17.66
2023-04-03T12:53:00.552Z,17.75
2023-04-03T12:55:26.897Z,17.52
2023-04-03T12:57:53.275Z,17.76
2023-04-03T13:00:19.613Z,17.62
2023-04-03T13:02:46.050Z,17.41
2023-04-03T13:05:12.517Z,17.59
2023-04-03T13:07:38.898Z,17.48
2023-04-03T13:10:05.272Z,17.29
2023-04-03T13:12:32.371Z,17.39
2023-04-03T13:14:58.862Z,17.51
2023-04-03T13:17:25.251Z,17.20
2023-04-03T13:19:51.649Z,17.21
2023-04-03T13:22:18.077Z,17.39
2023-04-03T13:24:44.469Z,17.17
2023-04-03T13:27:10.857Z,17.18
2023-04-03T13:29:37.237Z,17.38
2023-04-03T13:32:03.612Z,17.29
2023-04-03T13:34:30.077Z,17.15
2023-04-03T13:36:56.434Z,16.97
2023-04-03T13:39:22.822Z,16.93
2023-04-03T13:44:33.021Z,17.00
2023-04-03T13:46:59.415Z,17.39
2023-04-03T13:49:27.118Z,17.48
2023-04-03T13:52:04.437Z,17.35
2023-04-03T13:54:33.430Z,17.55
2023-04-03T13:56:59.808Z,17.53
2023-04-03T13:59:26.149Z,17.81
2023-04-03T14:01:52.617Z,17.62
2023-04-03T14:04:19.232Z,17.63
2023-04-03T14:06:45.730Z,17.89
2023-04-03T14:09:12.150Z,17.78
2023-04-03T14:11:38.546Z,18.05
2023-04-03T14:14:04.908Z,17.79
2023-04-03T14:16:31.399Z,17.89
2023-04-03T14:18:57.742Z,17.72
2023-04-03T14:21:24.078Z,17.89
2023-04-03T14:23:50.454Z,17.81
2023-04-03T14:26:16.815Z,17.71
2023-04-03T14:28:45.209Z,17.79
2023-04-03T14:31:11.926Z,18.04
2023-04-03T14:33:38.305Z,17.98
2023-04-03T14:36:04.677Z,17.86
2023-04-03T14:38:31.132Z,18.18
2023-04-03T14:41:03.507Z,18.32
2023-04-03T14:43:36.367Z,18.01
2023-04-03T14:46:02.830Z,18.09
2023-04-03T14:48:29.305Z,18.07
2023-04-03T14:51:05.313Z,18.06
2023-04-03T14:53:38.865Z,18.22
2023-04-03T14:56:05.884Z,18.21
2023-04-03T14:58:32.228Z,18.16
2023-04-03T15:00:58.551Z,18.43
2023-04-03T15:03:25.017Z,18.20
2023-04-03T15:05:51.418Z,18.51
2023-04-03T15:08:17.817Z,18.67
2023-04-03T15:10:44.206Z,18.30
2023-04-03T15:13:10.554Z,18.37
2023-04-03T15:15:37.155Z,18.43
2023-04-03T15:18:03.734Z,18.57
2023-04-03T15:20:30.080Z,18.47
2023-04-03T15:22:56.405Z,18.59
2023-04-03T15:25:22.798Z,18.98
2023-04-03T15:27:49.134Z,18.92
2023-04-03T15:30:15.468Z,18.97
2023-04-03T15:32:41.898Z,19.11
2023-04-03T15:35:08.263Z,19.41
2023-04-03T15:37:34.654Z,19.27
2023-04-03T15:40:01.197Z,19.43
2023-04-03T15:42:27.649Z,19.10
2023-04-03T15:44:53.997Z,19.26
2023-04-03T15:47:20.358Z,19.34
2023-04-03T15:49:46.680Z,19.07
2023-04-03T15:52:13.014Z,19.20
2023-04-03T15:54:39.428Z,19.02
2023-04-03T15:57:05.807Z,19.30
2023-04-03T15:59:32.145Z,19.30
2023-04-03T16:01:58.623Z,19.03
2023-04-03T16:04:25.063Z,19.36
2023-04-03T16:06:51.406Z,19.12
2023-04-03T16:09:17.783Z,19.16
2023-04-03T16:11:44.106Z,19.20
2023-04-03T16:14:10.463Z,19.32
2023-04-03T16:16:36.837Z,19.10
2023-04-03T16:19:03.149Z,19.39
2023-04-03T16:21:29.462Z,19.45
2023-04-03T16:23:55.813Z,19.48
2023-04-03T16:26:22.146Z,19.46
2023-04-03T16:28:48.461Z,19.62
2023-04-03T16:31:14.852Z,19.63
2023-04-03T16:33:41.208Z,19.67
2023-04-03T16:36:07.546Z,19.45
2023-04-03T16:38:33.950Z,19.73
2023-04-03T16:41:00.296Z,19.80
2023-04-03T16:43:26.626Z,19.76
2023-04-03T16:45:52.981Z,19.85
2023-04-03T16:48:19.322Z,19.93
2023-04-03T16:50:45.769Z,19.77
2023-04-03T16:53:12.122Z,19.93
2023-04-03T16:55:38.444Z,19.89
2023-04-03T16:58:04.856Z,19.89
2023-04-03T17:00:31.231Z,20.08
2023-04-03T17:02:57.616Z,19.95
2023-04-03T17:05:23.975Z,19.95
2023-04-03T17:07:50.332Z,20.22
2023-04-03T17:10:16.645Z,20.26
2023-04-03T17:12:42.955Z,20.34
2023-04-03T17:15:09.327Z,20.35
2023-04-03T17:17:35.714Z,20.33
2023-04-03T17:20:02.107Z,20.27
2023-04-03T17:22:28.478Z,20.32
2023-04-03T17:24:54.790Z,20.46
2023-04-03T17:27:21.116Z,20.39
2023-04-03T17:29:47.487Z,20.66
2023-04-03T17:32:13.845Z,20.72
2023-04-03T17:34:40.178Z,20.56
2023-04-03T17:37:06.686Z,20.58
2023-04-03T17:39:33.071Z,20.69
2023-04-03T17:41:59.475Z,20.86
2023-04-03T17:44:25.925Z,20.92
2023-04-03T17:46:52.250Z,20.97
2023-04-03T17:49:18.612Z,21.28
2023-04-03T17:51:45.009Z,21.32
2023-04-03T17:54:11.329Z,21.14
2023-04-03T17:56:37.648Z,21.42
2023-04-03T17:59:04.012Z,21.09
2023-04-03T18:01:30.429Z,21.10
2023-04-03T18:03:56.855Z,21.24
2023-04-03T18:06:23.285Z,21.27
2023-04-03T18:08:49.609Z,21.25
2023-04-03T18:11:15.929Z,21.42
2023-04-03T18:13:42.322Z,21.48
2023-04-03T18:16:08.701Z,21.38
2023-04-03T18:18:35.053Z,21.38
2023-04-03T18:21:01.455Z,21.78
2023-04-03T18:23:27.749Z,21.65
2023-04-03T18:25:54.120Z,21.60
2023-04-03T18:28:20.501Z,21.87
2023-04-03T18:30:46.800Z,21.76
2023-04-03T18:33:13.215Z,21.87
2023-04-03T18:35:39.586Z,21.81
2023-04-03T18:38:06.166Z,22.17
2023-04-03T18:40:32.581Z,21.90
2023-04-03T18:42:58.946Z,21.92
2023-04-03T18:45:25.276Z,21.98
2023-04-03T18:47:51.656Z,22.33
2023-04-03T18:50:18.208Z,22.25
2023-04-03T18:52:44.521Z,22.19
2023-04-03T18:55:10.824Z,22.10
2023-04-03T18:57:37.192Z,22.43
2023-04-03T19:00:03.538Z,22.58
2023-04-03T19:02:29.948Z,22.31
2023-04-03T19:04:56.352Z,22.39
2023-04-03T19:07:22.655Z,22.50
2023-04-03T19:09:49.010Z,22.56
2023-04-03T19:12:15.395Z,22.55
2023-04-03T19:14:41.709Z,22.59
2023-04-03T19:17:08.046Z,22.91
2023-04-03T19:19:34.421Z,22.63
2023-04-03T19:22:00.762Z,22.78
2023-04-03T19:24:27.130Z,22.98
2023-04-03T19:26:53.512Z,22.70
2023-04-03T19:29:19.914Z,22.98
2023-04-03T19:31:46.249Z,23.18
2023-04-03T19:34:12.652Z,23.00
2023-04-03T19:36:39.014Z,23.38
2023-04-03T19:39:05.410Z,23.29
2023-04-03T19:41:31.867Z,23.18
2023-04-03T19:43:58.196Z,23.35
2023-04-03T19:46:24.527Z,23.09
2023-04-03T19:48:50.914Z,23.14
2023-04-03T19:51:17.259Z,23.07
2023-04-03T19:53:43.578Z,23.32
2023-04-03T19:56:10.021Z,23.43
2023-04-03T19:58:36.347Z,23.27
2023-04-03T20:01:02.676Z,23.62
2023-04-03T20:03:29.047Z,23.58
2023-04-03T20:05:55.383Z,23.70
2023-04-03T20:08:21.694Z,23.39
2023-04-03T20:10:48.083Z,23.72
2023-04-03T20:13:14.406Z,23.48
2023-04-03T20:15:40.766Z,23.81
2023-04-03T20:18:07.158Z,23.83
2023-04-03T20:20:33.627Z,23.73
2023-04-03T20:22:59.950Z,23.67
2023-04-03T20:27:55.769Z,24.00
2023-04-03T20:30:22.087Z,23.87
2023-04-03T20:32:48.574Z,23.82
2023-04-03T20:35:14.975Z,24.27
2023-04-03T20:37:41.331Z,24.14
2023-04-03T20:40:07.738Z,24.19
2023-04-03T20:42:34.061Z,24.54
2023-04-03T20:45:00.385Z,24.38
2023-04-03T20:47:26.838Z,24.60
2023-04-03T20:49:53.179Z,24.54
2023-04-03T20:52:19.528Z,24.58
2023-04-03T20:54:45.948Z,24.58
2023-04-03T20:57:12.254Z,25.07
2023-04-03T20:59:38.624Z,25.02
2023-04-03T21:02:05.005Z,24.89
2023-04-03T21:04:31.333Z,24.78
2023-04-03T21:06:57.648Z,24.84
2023-04-03T21:09:24.010Z,25.13
2023-04-03T21:11:50.319Z,24.93
2023-04-03T21:14:16.639Z,25.17
2023-04-03T21:16:43.042Z,25.25
2023-04-03T21:19:09.367Z,25.15
2023-04-03T21:21:35.701Z,25.37
2023-04-03T21:24:02.051Z,25.41
2023-04-03T21:26:28.405Z,25.58
2023-04-03T21:28:54.714Z,25.59
2023-04-03T21:31:21.176Z,25.63
2023-04-03T21:33:47.618Z,25.73
2023-04-03T21:36:13.922Z,25.78
2023-04-03T21:38:40.298Z,25.68
2023-04-03T21:41:06.694Z,25.85
2023-04-03T21:43:33.073Z,25.83
2023-04-03T21:45:59.536Z,25.75
2023-04-03T21:48:25.894Z,26.14
2023-04-03T21:50:52.237Z,26.13
2023-04-03T21:53:18.603Z,26.11
2023-04-03T21:55:44.932Z,25.96
2023-04-03T21:58:11.241Z,26.20
2023-04-03T22:00:37.737Z,26.31
2023-04-03T22:03:10.300Z,26.38
2023-04-03T22:05:37.151Z,26.52
2023-04-03T22:08:03.669Z,26.33
2023-04-03T22:10:29.993Z,26.46
2023-04-03T22:12:56.311Z,26.47
2023-04-03T22:15:22.732Z,26.73
2023-04-03T22:17:49.110Z,26.75
2023-04-03T22:20:15.467Z,26.96
2023-04-03T22:22:41.848Z,26.52
2023-04-03T22:25:08.160Z,26.97
2023-04-03T22:27:34.470Z,27.13
2023-04-03T22:30:00.831Z,26.80
2023-04-03T22:32:27.176Z,27.09
2023-04-03T22:34:53.503Z,27.17
2023-04-03T22:37:19.879Z,27.08
2023-04-03T22:39:46.228Z,27.28
2023-04-03T22:42:12.547Z,27.43
2023-04-03T22:44:38.955Z,27.47
2023-04-03T22:47:05.294Z,27.52
2023-04-03T22:49:31.638Z,27.49
2023-04-03T22:51:58.006Z,27.49
2023-04-03T22:54:24.338Z,27.59
2023-04-03T22:56:50.659Z,27.45
2023-04-03T22:59:17.030Z,27.90
2023-04-03T23:01:43.596Z,28.01
2023-04-03T23:04:10.065Z,27.79
2023-04-03T23:06:36.504Z,27.88
2023-04-03T23:09:02.858Z,28.06
2023-04-03T23:11:29.164Z,28.15
2023-04-03T23:13:55.545Z,28.09
2023-04-03T23:16:21.892Z,28.16
2023-04-03T23:18:48.308Z,28.27
2023-04-03T23:21:14.698Z,28.35
2023-04-03T23:23:41.023Z,28.27
2023-04-03T23:26:07.324Z,28.57
2023-04-03T23:28:33.731Z,28.38
2023-04-03T23:31:00.076Z,28.54
2023-04-03T23:33:26.415Z,28.66
2023-04-03T23:35:52.820Z,28.50
2023-04-03T23:38:19.220Z,28.70
2023-04-03T23:40:45.519Z,28.69
2023-04-03T23:43:11.866Z,28.76
2023-04-03T23:45:38.183Z,28.95
2023-04-03T23:48:04.559Z,28.97
2023-04-03T23:50:30.916Z,28.86
2023-04-03T23:52:57.257Z,28.90
2023-04-03T23:55:23.597Z,28.87
2023-04-03T23:57:49.977Z,29.13
